Time;durP1;ratioP1;P1;durP2;ratioP2;P2;SDS_P1;SDS_P2;PMS_P1;PMS_P2;Temp;Humidity;BMP_temperature;BMP_pressure;BME280_temperature;BME280_humidity;BME280_pressure;Samples;Min_cycle;Max_cycle;Signal;HPM_P1;HPM_P2
2021/06/20 00:01:16;;;;;;;2.15;1.42;;;;;;;19.61;100.00;99823.84;6203601;22;20044;-79
2021/06/20 00:03:41;;;;;;;1.80;1.30;;;;;;;19.42;100.00;99813.91;6211507;22;20025;-79
2021/06/20 00:06:31;;;;;;;2.75;1.17;;;;;;;19.36;100.00;99823.81;6194631;22;20148;-79
2021/06/20 00:08:58;;;;;;;1.50;1.00;;;;;;;19.58;100.00;99821.44;6219779;22;20129;-80
2021/06/20 00:11:48;;;;;;;1.27;1.05;;;;;;;19.45;100.00;99818.84;6219750;22;20062;-79
2021/06/20 00:14:29;;;;;;;1.95;1.00;;;;;;;19.46;100.00;99814.53;6193463;22;20016;-79
2021/06/20 00:17:28;;;;;;;1.85;1.20;;;;;;;19.52;100.00;99814.13;6193554;22;20020;-79
2021/06/20 00:20:23;;;;;;;1.20;1.08;;;;;;;19.37;100.00;99815.16;6193771;22;20032;-82
2021/06/20 00:22:58;;;;;;;1.58;1.08;;;;;;;19.50;100.00;99816.81;6219688;22;20270;-78
2021/06/20 00:25:27;;;;;;;2.83;1.20;;;;;;;19.35;100.00;99812.66;6219782;22;20009;-81
2021/06/20 00:28:11;;;;;;;1.52;0.80;;;;;;;19.46;100.00;99811.94;6193261;22;20259;-80
2021/06/20 00:30:51;;;;;;;1.20;1.00;;;;;;;19.43;100.00;99810.38;6221253;22;20012;-81
2021/06/20 00:33:23;;;;;;;2.30;1.00;;;;;;;19.38;100.00;99812.47;6193923;22;20005;-81
2021/06/20 00:35:52;;;;;;;1.02;0.93;;;;;;;19.34;100.00;99810.19;6219527;22;20411;-81
2021/06/20 00:38:32;;;;;;;2.78;0.98;;;;;;;19.30;100.00;99812.13;6193516;22;20008;-81
2021/06/20 00:41:09;;;;;;;1.23;1.00;;;;;;;19.45;100.00;99802.56;6193381;22;20012;-82
2021/06/20 00:43:40;;;;;;;3.80;1.02;;;;;;;19.46;100.00;99804.22;6219685;22;20026;-82
2021/06/20 00:46:45;;;;;;;3.63;1.30;;;;;;;19.29;100.00;99796.75;6193179;23;20018;-82
2021/06/20 00:49:24;;;;;;;1.92;1.17;;;;;;;19.33;100.00;99795.66;6219551;23;20085;-82
2021/06/20 00:51:55;;;;;;;1.55;1.27;;;;;;;19.53;100.00;99800.31;6193198;22;20097;-82
2021/06/20 00:54:47;;;;;;;5.18;1.40;;;;;;;19.44;100.00;99801.75;6220589;22;20078;-82
2021/06/20 00:57:22;;;;;;;;;;;;;;;19.55;100.00;99801.84;6195535;22;20008;-82
2021/06/20 01:00:16;;;;;;;1.60;1.35;;;;;;;19.61;100.00;99798.03;6222002;22;19931;-82
2021/06/20 01:02:56;;;;;;;2.15;1.40;;;;;;;19.54;100.00;99796.78;6194871;22;20013;-82
2021/06/20 01:06:17;;;;;;;3.00;1.48;;;;;;;19.58;100.00;99800.81;6194315;23;20020;-81
2021/06/20 01:08:59;;;;;;;4.20;1.50;;;;;;;19.48;100.00;99810.09;6194816;22;20016;-82
2021/06/20 01:11:30;;;;;;;1.20;1.10;;;;;;;19.32;100.00;99804.28;6194985;22;20035;-82
2021/06/20 01:14:29;;;;;;;4.73;1.30;;;;;;;19.47;100.00;99813.63;6221250;22;20013;-82
2021/06/20 01:17:08;;;;;;;1.65;1.27;;;;;;;19.45;100.00;99812.88;6221064;23;20009;-82
2021/06/20 01:19:35;;;;;;;1.67;1.50;;;;;;;19.47;100.00;99811.03;6194180;23;20060;-81
2021/06/20 01:22:30;;;;;;;2.20;1.42;;;;;;;19.41;100.00;99817.41;6233448;22;20013;-79
2021/06/20 01:25:01;;;;;;;2.08;1.50;;;;;;;19.41;100.00;99814.81;6194349;22;20235;-81
2021/06/20 01:27:35;;;;;;;2.33;1.70;;;;;;;19.24;100.00;99809.09;6194553;22;20016;-80
2021/06/20 01:30:04;;;;;;;2.88;1.90;;;;;;;19.10;100.00;99811.75;6221604;22;20024;-81
2021/06/20 01:32:49;;;;;;;2.65;1.50;;;;;;;19.18;100.00;99806.94;6220860;22;20020;-80
2021/06/20 01:35:23;;;;;;;1.95;1.58;;;;;;;19.23;100.00;99810.88;6220705;22;20016;-81
2021/06/20 01:37:59;;;;;;;3.78;2.00;;;;;;;19.41;100.00;99819.19;6194791;22;20009;-80
2021/06/20 01:40:28;;;;;;;5.05;1.73;;;;;;;19.36;100.00;99813.50;6220853;22;20016;-79
2021/06/20 01:43:04;;;;;;;2.92;1.80;;;;;;;19.18;100.00;99819.81;6194777;22;20048;-80
2021/06/20 01:45:31;;;;;;;2.00;1.77;;;;;;;19.45;100.00;99818.03;6194666;22;20012;-80
2021/06/20 01:47:59;;;;;;;2.47;1.90;;;;;;;19.43;100.00;99812.16;6194257;22;20083;-80
2021/06/20 01:50:28;;;;;;;2.47;1.80;;;;;;;19.36;100.00;99809.16;6194097;22;20466;-81
2021/06/20 01:53:04;;;;;;;2.72;1.90;;;;;;;19.34;100.00;99810.19;6194346;22;20028;-82
2021/06/20 01:55:47;;;;;;;2.60;2.17;;;;;;;19.22;100.00;99798.91;6220744;22;20028;-81
2021/06/20 01:58:26;;;;;;;2.38;2.00;;;;;;;19.38;100.00;99807.31;6220637;22;20016;-81
2021/06/20 02:00:57;;;;;;;3.42;2.22;;;;;;;19.41;100.00;99806.28;6220903;22;20064;-80
2021/06/20 02:03:28;;;;;;;2.83;2.13;;;;;;;19.20;100.00;99802.50;6221041;22;20005;-81
2021/06/20 02:06:00;;;;;;;3.47;2.03;;;;;;;19.39;100.00;99800.41;6193633;22;20036;-82
2021/06/20 02:08:42;;;;;;;4.20;2.42;;;;;;;19.41;100.00;99814.03;6221038;22;20072;-81
2021/06/20 02:11:10;;;;;;;2.50;2.30;;;;;;;19.34;100.00;99805.03;6194853;22;20267;-80
2021/06/20 02:13:49;;;;;;;3.50;2.60;;;;;;;19.17;100.00;99810.44;6194727;22;20019;-80
2021/06/20 02:16:20;;;;;;;5.38;2.80;;;;;;;19.01;100.00;99819.16;6194086;22;20089;-81
2021/06/20 02:19:10;;;;;;;3.08;2.40;;;;;;;18.92;100.00;99814.63;6221093;22;20105;-81
2021/06/20 02:21:51;;;;;;;4.43;3.03;;;;;;;18.63;100.00;99814.84;6221057;22;20020;-80
2021/06/20 02:24:32;;;;;;;5.22;3.25;;;;;;;18.67;100.00;99821.44;6220539;22;20456;-80
2021/06/20 02:27:05;;;;;;;3.67;3.35;;;;;;;18.78;100.00;99808.69;6220675;22;20013;-80
2021/06/20 02:29:48;;;;;;;4.70;3.78;;;;;;;18.94;100.00;99812.78;6194543;22;20092;-80
2021/06/20 02:32:19;;;;;;;4.45;3.95;;;;;;;19.05;100.00;99812.09;6220509;22;20024;-79
2021/06/20 02:34:54;;;;;;;4.55;3.65;;;;;;;19.17;100.00;99816.44;6194541;22;20004;-81
2021/06/20 02:37:22;;;;;;;4.55;3.97;;;;;;;19.23;100.00;99812.63;6220834;23;20016;-81
2021/06/20 02:43:09;;;;;;;5.63;3.80;;;;;;;19.19;100.00;99826.66;6227160;23;20011;-80
2021/06/20 02:45:55;;;;;;;5.70;4.15;;;;;;;18.99;100.00;99833.91;6224940;22;20024;-80
2021/06/20 02:48:21;;;;;;;4.85;3.78;;;;;;;19.05;100.00;99830.94;6220769;22;20076;-78
2021/06/20 02:51:16;;;;;;;4.35;3.95;;;;;;;18.96;100.00;99835.84;6220132;23;20104;-81
2021/06/20 02:53:53;;;;;;;6.82;4.05;;;;;;;19.40;100.00;99835.56;6220399;22;20020;-82
2021/06/20 02:56:34;;;;;;;5.88;4.40;;;;;;;18.95;100.00;99829.91;6194035;22;20008;-82
2021/06/20 02:59:26;;;;;;;5.20;4.03;;;;;;;19.07;100.00;99841.16;6194004;22;20008;-79
2021/06/20 03:02:18;;;;;;;5.70;3.67;;;;;;;18.76;100.00;99849.19;6194448;22;20009;-82
2021/06/20 03:04:44;;;;;;;;;;;;;;;18.58;100.00;99845.22;6222001;22;20020;-79
2021/06/20 03:07:19;;;;;;;5.40;3.47;;;;;;;18.71;100.00;99854.66;6220154;22;19936;-80
2021/06/20 03:10:00;;;;;;;5.50;3.33;;;;;;;19.05;100.00;99851.53;6219781;23;20009;-82
2021/06/20 03:12:26;;;;;;;4.90;3.50;;;;;;;19.06;100.00;99867.84;6220094;22;20017;-79
2021/06/20 03:15:22;;;;;;;4.80;3.80;;;;;;;19.15;100.00;99861.28;6193615;22;20124;-80
2021/06/20 03:17:55;;;;;;;4.00;3.53;;;;;;;19.11;100.00;99852.09;6220090;23;20005;-81
2021/06/20 03:20:31;;;;;;;4.00;3.60;;;;;;;19.08;100.00;99854.84;6220375;22;20012;-79
2021/06/20 03:23:03;;;;;;;7.43;4.53;;;;;;;19.10;100.00;99853.84;6220099;22;20011;-80
2021/06/20 03:26:03;;;;;;;4.38;3.60;;;;;;;19.21;100.00;99855.72;6193588;22;20028;-81
2021/06/20 03:28:32;;;;;;;4.55;3.92;;;;;;;19.15;100.00;99845.81;6220066;22;20024;-80
2021/06/20 03:31:04;;;;;;;6.53;4.38;;;;;;;19.31;100.00;99843.88;6220298;22;20097;-81
2021/06/20 03:33:39;;;;;;;3.85;3.55;;;;;;;19.29;100.00;99838.84;6220402;22;20016;-82
2021/06/20 03:36:16;;;;;;;5.30;4.10;;;;;;;19.52;100.00;99843.31;6193982;22;20009;-81
2021/06/20 03:38:44;;;;;;;5.55;4.07;;;;;;;19.51;100.00;99840.84;6193485;23;20011;-82
2021/06/20 03:41:10;;;;;;;5.53;4.20;;;;;;;19.46;100.00;99842.88;6193942;22;20254;-78
2021/06/20 03:43:39;;;;;;;5.53;4.22;;;;;;;19.39;100.00;99839.88;6194077;22;20013;-81
2021/06/20 03:46:05;;;;;;;5.03;4.13;;;;;;;19.38;100.00;99840.00;6193875;22;20019;-82
2021/06/20 03:48:40;;;;;;;6.47;4.80;;;;;;;19.57;100.00;99846.41;6194182;22;20009;-80
2021/06/20 03:51:07;;;;;;;7.50;4.57;;;;;;;19.48;100.00;99848.78;6220057;22;20056;-79
2021/06/20 03:54:24;;;;;;;8.00;4.00;;;;;;;19.43;100.00;99849.06;6193766;22;20329;-79
2021/06/20 03:57:06;;;;;;;8.15;3.80;;;;;;;19.79;100.00;99861.25;6193831;22;20340;-80
2021/06/20 03:59:37;;;;;;;9.23;4.10;;;;;;;19.72;100.00;99860.03;6220721;23;20366;-80
2021/06/20 04:02:27;;;;;;;7.40;4.10;;;;;;;19.74;100.00;99861.59;6220018;22;20097;-81
2021/06/20 04:04:53;;;;;;;7.53;4.03;;;;;;;19.61;100.00;99871.06;6224241;23;20020;-79
2021/06/20 04:07:28;;;;;;;13.40;4.55;;;;;;;19.59;100.00;99859.22;6203410;22;20033;-80
2021/06/20 04:10:25;;;;;;;7.65;4.57;;;;;;;19.55;100.00;99856.00;6193676;22;20015;-79
2021/06/20 04:13:00;;;;;;;7.63;3.72;;;;;;;19.76;100.00;99854.56;6219489;22;20009;-79
2021/06/20 04:15:41;;;;;;;4.75;3.28;;;;;;;19.57;100.00;99856.72;6193363;23;20013;-80
2021/06/20 04:18:33;;;;;;;3.78;3.47;;;;;;;19.77;100.00;99866.53;6193729;22;20100;-81
2021/06/20 04:21:03;;;;;;;5.60;3.72;;;;;;;19.85;100.00;99866.84;6219858;22;20032;-81
2021/06/20 04:23:31;;;;;;;4.63;3.97;;;;;;;20.04;100.00;99870.75;6219317;23;21073;-82
2021/06/20 04:25:59;;;;;;;7.32;4.30;;;;;;;19.94;100.00;99870.56;6193464;22;20009;-81
2021/06/20 04:28:32;;;;;;;4.72;4.22;;;;;;;19.70;100.00;99864.47;6220681;22;20009;-81
2021/06/20 04:31:21;;;;;;;6.18;4.13;;;;;;;19.97;100.00;99866.91;6221238;22;20355;-80
2021/06/20 04:33:51;;;;;;;5.70;4.13;;;;;;;20.24;100.00;99859.91;6221337;22;20482;-82
2021/06/20 04:36:33;;;;;;;7.10;4.40;;;;;;;20.22;100.00;99862.63;6195054;23;20075;-81
2021/06/20 04:39:32;;;;;;;5.38;4.05;;;;;;;20.32;100.00;99865.38;6194714;22;20001;-81
2021/06/20 04:41:58;;;;;;;4.88;3.75;;;;;;;20.65;100.00;99869.00;6220938;23;20053;-81
2021/06/20 04:44:44;;;;;;;4.55;3.80;;;;;;;21.21;100.00;99856.34;6220846;22;20012;-80
2021/06/20 04:47:16;;;;;;;5.28;4.15;;;;;;;21.07;99.35;99866.88;6194131;22;20028;-82
2021/06/20 04:50:03;;;;;;;5.97;4.57;;;;;;;21.47;99.40;99863.00;6221913;22;20001;-82
2021/06/20 04:52:39;;;;;;;5.80;3.75;;;;;;;21.52;99.80;99860.88;6194227;22;20012;-82
2021/06/20 04:58:38;;;;;;;4.60;3.28;;;;;;;21.93;97.73;99863.78;6221795;23;20024;-83
2021/06/20 05:04:25;;;;;;;4.03;2.10;;;;;;;22.02;96.19;99860.50;6220966;23;20028;-83
2021/06/20 05:06:58;;;;;;;3.70;1.77;;;;;;;22.13;92.66;99867.41;6194301;23;20021;-83
2021/06/20 05:09:25;;;;;;;2.08;1.67;;;;;;;22.25;92.86;99866.47;6220848;23;20012;-82
2021/06/20 05:12:06;;;;;;;1.70;1.50;;;;;;;22.37;90.22;99862.94;6194321;22;20008;-83
2021/06/20 05:15:03;;;;;;;1.95;1.42;;;;;;;22.20;89.72;99866.84;6220956;22;20275;-82
2021/06/20 05:17:40;;;;;;;1.90;1.58;;;;;;;22.33;90.14;99867.53;6221154;22;20104;-82
2021/06/20 05:20:06;;;;;;;1.27;1.10;;;;;;;22.09;90.59;99864.25;6220826;23;20105;-82
2021/06/20 05:22:34;;;;;;;2.60;1.30;;;;;;;21.91;90.79;99862.25;6194212;22;20390;-82
2021/06/20 05:25:08;;;;;;;1.50;1.30;;;;;;;21.65;92.75;99863.38;6194042;23;20015;-77
2021/06/20 05:27:33;;;;;;;2.55;1.65;;;;;;;21.68;94.01;99855.38;6193701;22;20020;-78
2021/06/20 05:30:03;;;;;;;1.50;1.35;;;;;;;21.35;92.40;99861.31;6193914;22;20365;-76
2021/06/20 05:32:30;;;;;;;1.67;1.58;;;;;;;21.75;93.86;99862.56;6193054;22;20032;-77
2021/06/20 05:34:55;;;;;;;2.55;1.50;;;;;;;21.88;93.44;99854.72;6220066;22;20017;-77
2021/06/20 05:37:45;;;;;;;4.70;1.98;;;;;;;21.86;91.42;99860.03;6223797;22;20012;-81
2021/06/20 05:40:20;;;;;;;3.08;1.80;;;;;;;22.20;92.80;99858.25;6193935;22;20011;-79
2021/06/20 05:42:51;;;;;;;3.10;1.50;;;;;;;22.54;89.69;99859.03;6219322;23;20099;-82
2021/06/20 05:45:40;;;;;;;3.10;1.87;;;;;;;22.80;86.99;99868.97;6194371;22;20066;-84
2021/06/20 05:48:06;;;;;;;1.48;1.35;;;;;;;22.74;87.89;99855.69;6194225;22;20028;-82
2021/06/20 05:50:34;;;;;;;1.85;1.30;;;;;;;23.01;86.42;99853.47;6219516;23;20012;-82
2021/06/20 05:53:04;;;;;;;2.72;1.63;;;;;;;22.41;88.58;99856.56;6189769;23;20028;-77
2021/06/20 05:55:30;;;;;;;1.95;1.42;;;;;;;22.67;87.36;99857.13;6193518;23;20101;-79
2021/06/20 05:57:56;;;;;;;4.88;1.52;;;;;;;23.05;85.35;99862.66;6219842;22;20024;-80
2021/06/20 06:00:33;;;;;;;3.53;1.48;;;;;;;23.42;84.93;99856.13;6220658;22;20036;-80
2021/06/20 06:03:00;;;;;;;2.22;1.60;;;;;;;23.63;83.84;99848.31;6218592;22;20009;-77
2021/06/20 06:05:26;;;;;;;2.78;1.50;;;;;;;23.58;83.46;99842.69;6177322;22;20311;-78
2021/06/20 06:08:09;;;;;;;1.55;1.40;;;;;;;23.65;81.65;99842.03;6187906;22;20229;-78
2021/06/20 06:10:35;;;;;;;1.48;1.38;;;;;;;23.27;83.29;99845.19;6183369;23;20019;-76
2021/06/20 06:13:02;;;;;;;2.88;1.50;;;;;;;23.52;81.53;99835.41;6183309;22;20017;-77
2021/06/20 06:15:29;;;;;;;1.77;1.40;;;;;;;22.91;83.09;99847.38;6183778;23;20016;-78
2021/06/20 06:17:59;;;;;;;3.35;1.67;;;;;;;23.16;83.38;99842.66;6184332;23;20101;-80
2021/06/20 06:20:38;;;;;;;1.70;1.50;;;;;;;23.00;83.33;99854.41;6184847;22;20019;-78
2021/06/20 06:23:04;;;;;;;2.03;1.40;;;;;;;23.48;82.60;99858.22;6186575;23;20031;-79
2021/06/20 06:25:29;;;;;;;1.63;1.25;;;;;;;23.14;81.90;99859.28;6183922;22;20024;-78
2021/06/20 06:28:01;;;;;;;2.55;1.40;;;;;;;23.23;82.78;99845.59;6183594;22;20009;-79
2021/06/20 06:30:26;;;;;;;;;;;;;;;23.24;83.90;99860.19;6187569;23;20248;-77
2021/06/20 06:32:57;;;;;;;1.83;1.50;;;;;;;23.08;83.39;99859.78;6183411;23;19930;-77
2021/06/20 06:35:29;;;;;;;1.83;1.40;;;;;;;23.21;82.23;99856.06;6184114;22;20013;-80
2021/06/20 06:37:56;;;;;;;1.85;1.58;;;;;;;23.19;81.26;99857.16;6185385;23;20039;-78
2021/06/20 06:40:25;;;;;;;2.30;1.58;;;;;;;22.81;85.75;99864.63;6183930;23;20128;-78
2021/06/20 06:42:51;;;;;;;2.33;1.75;;;;;;;22.78;85.85;99857.91;6183997;23;20040;-81
2021/06/20 06:45:17;;;;;;;2.17;1.98;;;;;;;22.64;88.21;99860.78;6183937;22;20233;-81
2021/06/20 06:47:43;;;;;;;2.80;1.80;;;;;;;22.74;85.85;99866.06;6184473;22;20074;-77
2021/06/20 06:50:09;;;;;;;3.30;1.77;;;;;;;22.62;86.02;99857.47;6187699;23;20021;-75
2021/06/20 06:52:35;;;;;;;1.98;1.33;;;;;;;22.76;85.21;99864.19;6184382;23;20029;-71
2021/06/20 06:55:05;;;;;;;3.05;1.30;;;;;;;23.14;83.09;99852.34;6183307;23;20078;-74
2021/06/20 06:57:32;;;;;;;2.67;1.45;;;;;;;22.92;83.58;99854.19;6181531;22;20049;-73
2021/06/20 06:59:57;;;;;;;2.42;1.40;;;;;;;23.18;83.10;99848.56;6182211;22;20020;-73
2021/06/20 07:02:23;;;;;;;1.42;1.15;;;;;;;23.74;80.42;99850.81;6183379;23;20371;-75
2021/06/20 07:04:49;;;;;;;2.45;1.30;;;;;;;24.31;77.14;99835.47;6182197;22;20061;-74
2021/06/20 07:07:15;;;;;;;1.50;1.10;;;;;;;23.76;78.66;99841.13;6183247;22;20012;-77
2021/06/20 07:09:50;;;;;;;1.40;1.30;;;;;;;24.05;77.50;99839.50;6183027;22;20266;-76
2021/06/20 07:12:16;;;;;;;1.27;1.17;;;;;;;23.57;79.39;99846.25;6183034;22;20024;-75
2021/06/20 07:14:47;;;;;;;2.78;1.52;;;;;;;24.15;77.02;99839.53;6184880;23;20365;-76
2021/06/20 07:17:13;;;;;;;;;;;;;;;23.63;77.83;99850.91;6186419;23;20027;-78
2021/06/20 07:19:41;;;;;;;2.30;1.25;;;;;;;23.60;78.10;99848.56;6185255;23;19940;-77
2021/06/20 07:22:06;;;;;;;1.75;1.30;;;;;;;23.09;79.79;99851.06;6184906;23;20028;-76
2021/06/20 07:24:33;;;;;;;1.50;1.20;;;;;;;23.43;79.15;99851.75;6182549;23;20013;-77
2021/06/20 07:26:58;;;;;;;1.48;1.33;;;;;;;23.83;77.33;99855.22;6182730;23;20405;-77
2021/06/20 07:29:27;;;;;;;1.98;1.30;;;;;;;23.58;78.08;99850.47;6183531;23;20012;-76
2021/06/20 07:31:53;;;;;;;1.95;1.38;;;;;;;23.43;79.27;99854.34;6184650;23;20028;-76
2021/06/20 07:34:21;;;;;;;1.83;1.50;;;;;;;23.53;78.88;99860.44;6182385;22;20033;-76
2021/06/20 07:36:48;;;;;;;1.40;1.23;;;;;;;23.48;77.08;99865.16;6182460;22;20017;-76
2021/06/20 07:39:15;;;;;;;2.22;1.38;;;;;;;23.56;77.35;99854.97;6182892;23;20078;-77
2021/06/20 07:41:40;;;;;;;2.08;1.40;;;;;;;24.30;74.99;99859.03;6184405;23;20037;-75
2021/06/20 07:44:06;;;;;;;3.45;1.50;;;;;;;24.63;73.14;99861.28;6182760;22;20049;-75
2021/06/20 07:46:37;;;;;;;3.38;1.67;;;;;;;25.14;72.77;99867.06;6182382;22;20023;-78
2021/06/20 07:49:03;;;;;;;1.65;1.55;;;;;;;23.97;75.47;99863.50;6183343;22;20033;-75
2021/06/20 07:51:29;;;;;;;2.00;1.52;;;;;;;24.49;74.52;99867.69;6185080;23;20387;-79
2021/06/20 07:53:56;;;;;;;1.77;1.58;;;;;;;25.03;72.26;99879.41;6183356;23;20038;-77
2021/06/20 07:56:27;;;;;;;1.98;1.52;;;;;;;24.59;73.50;99873.72;6185309;23;20044;-77
2021/06/20 07:58:56;;;;;;;2.60;1.70;;;;;;;24.35;74.24;99872.41;6185498;23;20024;-75
2021/06/20 08:01:24;;;;;;;1.63;1.42;;;;;;;23.96;74.64;99868.84;6183744;22;20287;-77
2021/06/20 08:03:50;;;;;;;2.28;1.48;;;;;;;23.97;76.21;99865.28;6185986;22;20396;-79
2021/06/20 08:07:07;;;;;;;3.33;1.70;;;;;;;24.38;77.14;99865.22;6188705;22;20120;-75
2021/06/20 08:09:35;;;;;;;1.73;1.55;;;;;;;25.38;72.42;99867.47;6188964;22;20017;-77
2021/06/20 08:12:15;;;;;;;2.08;1.60;;;;;;;25.43;71.32;99869.69;6190947;22;20008;-76
2021/06/20 08:14:45;;;;;;;1.65;1.55;;;;;;;24.37;73.93;99863.53;6189189;22;20038;-76
2021/06/20 08:17:21;;;;;;;1.83;1.73;;;;;;;24.18;72.92;99854.88;6215508;23;20074;-77
2021/06/20 08:19:47;;;;;;;1.92;1.70;;;;;;;24.29;75.16;99858.19;6215435;23;20046;-73
2021/06/20 08:22:17;;;;;;;3.95;2.00;;;;;;;24.23;74.88;99852.69;6187951;22;20034;-74
2021/06/20 08:24:51;;;;;;;2.67;2.20;;;;;;;24.13;76.03;99854.47;6188259;22;20011;-74
2021/06/20 08:27:26;;;;;;;2.55;2.35;;;;;;;24.19;75.40;99849.53;6189160;22;20008;-75
2021/06/20 08:29:59;;;;;;;2.10;1.90;;;;;;;24.27;75.53;99846.28;6216665;22;20048;-75
2021/06/20 08:32:50;;;;;;;2.72;2.38;;;;;;;24.46;74.63;99848.94;6215962;22;20463;-75
2021/06/20 08:35:19;;;;;;;3.88;2.35;;;;;;;24.47;73.55;99848.78;6189359;22;20016;-75
2021/06/20 08:37:58;;;;;;;3.42;2.40;;;;;;;24.43;74.23;99850.00;6189094;22;20020;-76
2021/06/20 08:40:35;;;;;;;2.50;2.30;;;;;;;24.67;72.57;99857.44;6189600;23;20008;-76
2021/06/20 08:43:01;;;;;;;3.03;2.30;;;;;;;25.40;70.37;99856.94;6189494;22;20008;-80
2021/06/20 08:45:28;;;;;;;2.90;2.10;;;;;;;25.15;72.46;99852.28;6189485;22;20020;-75
2021/06/20 08:47:57;;;;;;;2.38;2.17;;;;;;;25.60;69.80;99848.13;6189556;22;20009;-80
2021/06/20 08:50:22;;;;;;;2.42;2.20;;;;;;;24.59;72.76;99854.69;6189927;22;20626;-80
2021/06/20 08:52:52;;;;;;;2.72;2.22;;;;;;;24.83;69.67;99858.59;6189066;23;20398;-78
2021/06/20 08:55:23;;;;;;;2.47;2.28;;;;;;;24.85;71.95;99855.84;6189194;22;20044;-77
2021/06/20 08:58:00;;;;;;;2.58;2.30;;;;;;;24.90;72.48;99853.66;6185568;22;20693;-87
2021/06/20 09:01:19;;;;;;;2.40;2.17;;;;;;;24.63;70.84;99851.69;6189482;22;20048;-82
2021/06/20 09:03:46;;;;;;;3.10;2.50;;;;;;;26.06;68.04;99853.34;6189094;22;20062;-83
2021/06/20 09:06:28;;;;;;;2.63;2.40;;;;;;;25.41;71.02;99851.59;6188403;23;20108;-81
2021/06/20 09:09:04;;;;;;;2.78;2.40;;;;;;;25.02;70.80;99849.94;6188764;22;20060;-80
2021/06/20 09:11:36;;;;;;;2.42;2.22;;;;;;;25.27;69.19;99853.78;6188959;22;20062;-79
2021/06/20 09:14:09;;;;;;;2.70;2.50;;;;;;;25.22;70.31;99854.19;6188814;22;20015;-78
2021/06/20 09:16:59;;;;;;;2.28;2.08;;;;;;;24.83;69.71;99860.38;6189504;22;20238;-80
2021/06/20 09:19:44;;;;;;;2.63;2.40;;;;;;;26.49;67.25;99850.06;6189123;22;20015;-75
2021/06/20 09:22:10;;;;;;;3.03;2.45;;;;;;;25.48;68.81;99850.06;6188453;22;20012;-74
2021/06/20 09:24:42;;;;;;;3.40;2.47;;;;;;;25.49;68.07;99843.88;6215471;22;20341;-75
2021/06/20 09:27:08;;;;;;;2.83;2.20;;;;;;;25.19;68.80;99857.09;6188201;22;20008;-74
2021/06/20 09:29:39;;;;;;;2.72;2.38;;;;;;;25.86;67.82;99858.72;6188121;22;20032;-75
2021/06/20 09:32:10;;;;;;;2.72;2.50;;;;;;;25.64;69.35;99858.13;6188608;22;20287;-75
2021/06/20 09:34:49;;;;;;;3.75;2.60;;;;;;;24.77;70.91;99868.72;6189700;22;20023;-75
2021/06/20 09:37:18;;;;;;;4.45;2.42;;;;;;;24.79;71.61;99859.00;6189283;22;20016;-76
2021/06/20 09:39:46;;;;;;;2.85;2.47;;;;;;;24.72;70.10;99860.47;6189170;22;20039;-79
2021/06/20 09:42:15;;;;;;;3.08;2.30;;;;;;;24.59;71.49;99860.72;6189130;22;20013;-77
2021/06/20 09:44:54;;;;;;;3.03;2.72;;;;;;;25.28;69.00;99853.63;6189377;22;20009;-78
2021/06/20 09:47:24;;;;;;;2.72;2.50;;;;;;;25.11;69.10;99854.34;6214449;22;20324;-74
2021/06/20 09:49:59;;;;;;;3.08;2.25;;;;;;;25.56;67.73;99850.19;6214632;22;20053;-73
2021/06/20 09:52:34;;;;;;;2.45;2.22;;;;;;;25.96;66.81;99842.09;6188310;22;20012;-73
2021/06/20 09:55:03;;;;;;;2.60;2.40;;;;;;;25.83;65.84;99849.41;6214116;22;20012;-74
2021/06/20 09:57:42;;;;;;;5.03;2.50;;;;;;;25.91;68.22;99857.34;6187194;22;20020;-74
2021/06/20 10:00:12;;;;;;;3.90;2.45;;;;;;;26.39;67.42;99859.75;6188177;22;20016;-75
2021/06/20 10:02:44;;;;;;;3.17;2.60;;;;;;;25.75;67.73;99849.31;6187579;22;20020;-74
2021/06/20 10:05:11;;;;;;;2.72;2.45;;;;;;;25.67;68.25;99852.63;6214441;22;20128;-72
2021/06/20 10:07:38;;;;;;;2.67;2.47;;;;;;;25.68;68.41;99841.25;6187581;22;20389;-74
2021/06/20 10:10:09;;;;;;;3.55;2.55;;;;;;;25.61;67.69;99834.16;6187035;22;20371;-74
2021/06/20 10:12:35;;;;;;;;;;;;;;;26.04;67.37;99841.38;6215234;22;20279;-73
2021/06/20 10:15:11;;;;;;;2.50;2.30;;;;;;;26.65;64.88;99842.41;6214531;22;19939;-73
2021/06/20 10:17:40;;;;;;;3.33;2.47;;;;;;;26.95;64.56;99846.47;6187255;22;20846;-72
2021/06/20 10:20:10;;;;;;;2.20;2.00;;;;;;;26.03;65.52;99842.34;6216064;22;20009;-72
2021/06/20 10:22:49;;;;;;;3.20;2.00;;;;;;;26.02;65.80;99840.69;6214558;22;20019;-74
2021/06/20 10:25:37;;;;;;;2.03;1.90;;;;;;;26.89;63.57;99837.47;6213908;22;20044;-74
2021/06/20 10:28:13;;;;;;;2.70;1.63;;;;;;;26.15;64.31;99829.00;6215080;22;20012;-73
2021/06/20 10:30:45;;;;;;;2.60;1.60;;;;;;;26.06;65.55;99831.63;6188204;22;20035;-74
2021/06/20 10:33:26;;;;;;;3.47;1.63;;;;;;;26.51;65.16;99830.69;6188001;22;20016;-74
2021/06/20 10:36:06;;;;;;;2.45;1.30;;;;;;;26.23;64.87;99839.53;6188178;22;20028;-73
2021/06/20 10:38:44;;;;;;;0.73;0.70;;;;;;;25.24;67.42;99838.44;6213987;22;20287;-72
2021/06/20 10:41:21;;;;;;;2.60;1.30;;;;;;;24.95;68.82;99841.06;6187236;22;20116;-72
2021/06/20 10:44:02;;;;;;;3.03;1.17;;;;;;;25.17;68.02;99827.78;6187364;22;20142;-73
2021/06/20 10:46:30;;;;;;;1.90;0.80;;;;;;;25.02;68.74;99829.13;6214060;22;20017;-73
2021/06/20 10:48:56;;;;;;;1.13;0.90;;;;;;;25.59;67.07;99823.84;6187101;22;20008;-73
2021/06/20 10:51:24;;;;;;;0.80;0.60;;;;;;;25.35;67.75;99830.47;6213822;22;20005;-73
2021/06/20 10:53:51;;;;;;;0.70;0.60;;;;;;;25.20;68.85;99829.25;6216307;22;20345;-72
2021/06/20 10:56:25;;;;;;;0.63;0.50;;;;;;;24.87;70.54;99825.31;6191876;23;20391;-70
2021/06/20 10:58:55;;;;;;;0.82;0.70;;;;;;;25.34;68.60;99821.00;6192216;22;20020;-72
2021/06/20 11:01:27;;;;;;;1.67;0.70;;;;;;;26.12;65.47;99828.47;6191872;22;20104;-75
2021/06/20 11:03:54;;;;;;;1.25;0.77;;;;;;;27.12;62.74;99828.16;6218885;22;20016;-73
2021/06/20 11:06:23;;;;;;;1.25;0.77;;;;;;;26.81;62.77;99823.50;6219689;23;20117;-74
2021/06/20 11:09:00;;;;;;;0.93;0.73;;;;;;;27.17;63.26;99810.28;6191925;22;20001;-73
2021/06/20 11:11:47;;;;;;;0.70;0.70;;;;;;;26.79;63.74;99810.63;6218660;22;20016;-73
2021/06/20 11:14:43;;;;;;;2.38;0.80;;;;;;;27.43;62.38;99805.88;6192622;22;20065;-73
2021/06/20 11:17:11;;;;;;;1.25;0.75;;;;;;;26.51;62.85;99812.44;6218981;22;20012;-73
2021/06/20 11:19:38;;;;;;;1.55;0.98;;;;;;;27.03;62.42;99803.00;6192770;22;20012;-73
2021/06/20 11:22:07;;;;;;;1.08;0.85;;;;;;;26.62;63.06;99798.38;6191864;22;20415;-74
2021/06/20 11:24:38;;;;;;;0.88;0.70;;;;;;;25.88;64.38;99799.47;6218965;22;20012;-73
2021/06/20 11:27:06;;;;;;;2.22;0.80;;;;;;;26.06;64.25;99795.13;6218749;22;20066;-74
2021/06/20 11:30:04;;;;;;;1.80;0.90;;;;;;;26.01;68.04;99792.16;6192461;22;20104;-74
2021/06/20 11:32:55;;;;;;;0.70;0.50;;;;;;;25.57;71.81;99789.31;6191472;22;20016;-75
2021/06/20 11:35:22;;;;;;;;;;;;;;;25.29;70.60;99787.59;6193565;22;20395;-73
2021/06/20 11:37:55;;;;;;;0.80;0.55;;;;;;;25.43;71.32;99784.56;6191537;22;19927;-75
2021/06/20 11:40:27;;;;;;;1.25;0.70;;;;;;;25.44;70.65;99780.19;6191833;22;20020;-73
2021/06/20 11:43:00;;;;;;;1.60;0.90;;;;;;;25.59;71.68;99783.97;6218804;22;20013;-73
2021/06/20 11:45:33;;;;;;;0.50;0.50;;;;;;;25.28;71.64;99782.50;6192098;23;20097;-72
2021/06/20 11:48:02;;;;;;;1.27;0.70;;;;;;;25.07;72.63;99789.69;6218719;22;20015;-73
2021/06/20 11:50:36;;;;;;;1.30;0.73;;;;;;;25.04;74.00;99776.97;6218452;22;20012;-72
2021/06/20 11:53:09;;;;;;;3.67;0.70;;;;;;;24.45;79.12;99788.31;6191646;22;20402;-74
2021/06/20 11:55:40;;;;;;;1.88;0.80;;;;;;;24.15;80.61;99785.78;6192038;22;20019;-74
2021/06/20 11:58:15;;;;;;;1.02;0.85;;;;;;;24.81;79.74;99782.47;6191502;22;20389;-74
2021/06/20 12:00:44;;;;;;;1.45;0.90;;;;;;;24.93;74.99;99789.19;6218976;22;20022;-73
2021/06/20 12:03:28;;;;;;;0.60;0.52;;;;;;;25.37;70.37;99777.31;6219057;22;20015;-74
2021/06/20 12:06:10;;;;;;;1.10;0.65;;;;;;;26.22;66.61;99774.50;6219124;22;20023;-75
2021/06/20 12:08:42;;;;;;;1.25;0.60;;;;;;;26.19;63.78;99769.56;6218339;23;20029;-74
2021/06/20 12:11:14;;;;;;;0.57;0.50;;;;;;;27.28;61.85;99757.78;6219037;22;20008;-74
2021/06/20 12:13:52;;;;;;;0.60;0.50;;;;;;;26.36;62.73;99763.56;6218648;22;20093;-74
2021/06/20 12:16:22;;;;;;;1.02;0.40;;;;;;;26.67;62.96;99749.16;6192059;22;20016;-75